createdAt,value
2022-11-23T00:00:19.722Z,57.00
2022-11-23T00:03:23.024Z,58.40
2022-11-23T00:06:27.027Z,52.00
2022-11-23T00:09:31.893Z,60.75
2022-11-23T00:12:35.392Z,59.00
2022-11-23T00:15:41.737Z,55.00
2022-11-23T00:18:46.811Z,57.00
2022-11-23T00:21:50.142Z,57.00
2022-11-23T00:24:54.901Z,55.40
2022-11-23T00:27:58.219Z,55.40
2022-11-23T00:31:01.653Z,52.60
2022-11-23T00:34:05.133Z,55.40
2022-11-23T00:37:08.464Z,52.50
2022-11-23T00:40:14.151Z,57.00
2022-11-23T00:43:17.399Z,51.80
2022-11-23T00:46:22.633Z,54.60
2022-11-23T00:49:25.981Z,54.20
2022-11-23T00:52:30.370Z,58.60
2022-11-23T00:55:35.176Z,55.00
2022-11-23T00:58:39.612Z,53.00
2022-11-23T01:01:43.171Z,55.40
2022-11-23T01:04:46.499Z,55.00
2022-11-23T01:07:49.715Z,56.80
2022-11-23T01:10:54.434Z,55.60
2022-11-23T01:13:57.727Z,57.25
2022-11-23T01:17:01.008Z,57.25
2022-11-23T01:20:05.004Z,52.00
2022-11-23T01:23:08.415Z,56.20
2022-11-23T01:26:13.377Z,52.60
2022-11-23T01:29:16.849Z,57.20
2022-11-23T01:32:20.138Z,55.00
2022-11-23T01:35:23.289Z,53.40
2022-11-23T01:38:28.832Z,52.00
2022-11-23T01:41:36.537Z,50.80
2022-11-23T01:44:39.813Z,52.40
2022-11-23T01:47:43.083Z,52.25
2022-11-23T01:50:50.205Z,50.40
2022-11-23T01:53:58.348Z,49.20
2022-11-23T01:57:07.920Z,49.25
2022-11-23T02:00:13.574Z,52.40
2022-11-23T02:03:17.128Z,52.00
2022-11-23T02:06:24.302Z,45.80
2022-11-23T02:09:27.834Z,50.00
2022-11-23T02:12:32.683Z,49.80
2022-11-23T02:15:37.172Z,46.25
2022-11-23T02:18:44.405Z,47.20
2022-11-23T02:21:48.320Z,49.00
2022-11-23T02:24:56.318Z,50.00
2022-11-23T02:28:03.274Z,49.60
2022-11-23T02:31:06.562Z,49.20
2022-11-23T02:34:09.872Z,47.40
2022-11-23T02:37:14.169Z,51.50
2022-11-23T02:40:27.066Z,50.60
2022-11-23T02:43:31.709Z,47.60
2022-11-23T02:46:35.456Z,51.40
2022-11-23T02:53:01.258Z,50.00
2022-11-23T02:56:04.677Z,52.80
2022-11-23T02:59:09.530Z,47.60
2022-11-23T03:02:12.881Z,51.20
2022-11-23T03:05:16.700Z,43.50
2022-11-23T03:08:19.934Z,52.00
2022-11-23T03:11:23.488Z,51.40
2022-11-23T03:14:28.238Z,51.80
2022-11-23T03:17:38.088Z,47.00
2022-11-23T03:20:44.494Z,50.75
2022-11-23T03:23:48.155Z,53.50
2022-11-23T03:26:51.551Z,49.25
2022-11-23T03:29:57.851Z,49.00
2022-11-23T03:33:01.210Z,50.00
2022-11-23T03:36:05.222Z,48.25
2022-11-23T03:39:15.186Z,51.60
2022-11-23T03:42:27.408Z,51.00
2022-11-23T03:45:33.703Z,50.50
2022-11-23T03:48:37.002Z,51.40
2022-11-23T03:51:40.301Z,49.00
2022-11-23T03:54:44.522Z,48.25
2022-11-23T03:57:49.852Z,48.00
2022-11-23T04:00:55.446Z,47.60
2022-11-23T04:03:58.931Z,52.60
2022-11-23T04:07:14.218Z,50.60
2022-11-23T04:10:25.019Z,50.80
2022-11-23T04:13:43.396Z,49.00
2022-11-23T04:16:48.173Z,48.50
2022-11-23T04:19:52.372Z,46.00
2022-11-23T04:22:55.641Z,40.00
2022-11-23T04:25:59.915Z,38.25
2022-11-23T04:29:03.475Z,46.80
2022-11-23T04:32:09.676Z,49.80
2022-11-23T04:35:14.789Z,40.00
2022-11-23T04:38:20.645Z,47.00
2022-11-23T04:41:25.657Z,47.20
2022-11-23T04:44:30.084Z,46.00
2022-11-23T04:47:40.059Z,44.33
2022-11-23T04:50:50.852Z,40.00
2022-11-23T04:54:03.110Z,45.40
2022-11-23T04:57:12.106Z,46.25
2022-11-23T05:00:17.456Z,45.60
2022-11-23T05:03:23.325Z,47.60
2022-11-23T05:06:26.618Z,47.25
2022-11-23T05:09:31.263Z,47.00
2022-11-23T05:12:49.293Z,52.00
2022-11-23T05:15:53.368Z,41.40
2022-11-23T05:19:03.379Z,45.80
2022-11-23T05:22:07.028Z,49.60
2022-11-23T05:25:12.732Z,45.50
2022-11-23T05:28:39.097Z,49.00
2022-11-23T05:31:40.737Z,52.00
2022-11-23T05:34:45.483Z,52.20
2022-11-23T05:37:51.943Z,49.60
2022-11-23T05:40:55.327Z,50.00
2022-11-23T05:43:58.810Z,51.40
2022-11-23T05:47:05.137Z,50.00
2022-11-23T05:50:11.996Z,55.00
2022-11-23T05:53:19.604Z,53.60
2022-11-23T05:56:27.883Z,45.00
2022-11-23T05:59:41.008Z,44.00
2022-11-23T06:02:47.655Z,40.33
2022-11-23T06:05:52.583Z,48.75
2022-11-23T06:09:03.343Z,51.60
2022-11-23T06:12:08.613Z,49.00
2022-11-23T06:15:12.158Z,49.60
2022-11-23T06:18:16.017Z,47.00
2022-11-23T06:21:25.909Z,47.80
2022-11-23T06:24:29.464Z,44.50
2022-11-23T06:27:56.487Z,48.00
2022-11-23T06:31:05.303Z,44.40
2022-11-23T06:34:09.135Z,46.40
2022-11-23T06:37:14.438Z,40.20
2022-11-23T06:40:19.511Z,32.80
2022-11-23T06:43:22.796Z,39.00
2022-11-23T06:46:26.880Z,29.20
2022-11-23T06:49:30.324Z,38.00
2022-11-23T06:52:56.897Z,40.25
2022-11-23T06:56:10.881Z,38.25
2022-11-23T06:59:16.031Z,34.00
2022-11-23T07:02:20.195Z,36.50
2022-11-23T07:05:24.387Z,40.40
2022-11-23T07:08:29.723Z,32.25
2022-11-23T07:11:35.317Z,34.80
2022-11-23T07:14:38.718Z,27.50
2022-11-23T07:17:42.999Z,34.00
2022-11-23T07:20:46.937Z,27.80
2022-11-23T07:23:51.928Z,32.40
2022-11-23T07:26:55.980Z,34.60
2022-11-23T07:29:59.348Z,30.50
2022-11-23T07:33:03.433Z,34.00
2022-11-23T07:36:08.029Z,29.80
2022-11-23T07:39:14.511Z,28.25
2022-11-23T07:42:32.752Z,32.40
2022-11-23T07:45:38.697Z,30.40
2022-11-23T07:48:43.827Z,29.50
2022-11-23T07:51:47.087Z,39.00
2022-11-23T07:54:51.736Z,37.80
2022-11-23T07:57:55.912Z,36.40
2022-11-23T08:00:59.321Z,35.00
2022-11-23T08:04:02.665Z,27.50
2022-11-23T08:07:06.105Z,33.40
2022-11-23T08:10:11.364Z,34.80
2022-11-23T08:13:14.666Z,34.00
2022-11-23T08:16:19.090Z,36.50
2022-11-23T08:19:22.347Z,31.50
2022-11-23T08:22:27.554Z,32.60
2022-11-23T08:25:32.452Z,34.00
2022-11-23T08:28:35.722Z,40.20
2022-11-23T08:31:38.955Z,32.50
2022-11-23T08:34:43.841Z,36.00
2022-11-23T08:37:47.164Z,34.20
2022-11-23T08:40:51.792Z,41.40
2022-11-23T08:43:55.036Z,36.60
2022-11-23T08:46:58.376Z,39.50
2022-11-23T08:50:01.899Z,34.00
2022-11-23T08:53:05.823Z,34.20
2022-11-23T08:56:11.275Z,29.60
2022-11-23T08:59:14.596Z,35.00
2022-11-23T09:02:17.821Z,39.40
2022-11-23T09:05:21.463Z,33.60
2022-11-23T09:08:24.678Z,32.75
2022-11-23T09:11:29.374Z,33.25
2022-11-23T09:14:32.797Z,35.40
2022-11-23T09:17:36.686Z,40.20
2022-11-23T09:20:41.147Z,33.75
2022-11-23T09:23:44.706Z,39.00
2022-11-23T09:26:50.067Z,34.25
2022-11-23T09:29:53.376Z,39.80
2022-11-23T09:32:57.049Z,37.60
2022-11-23T09:36:00.529Z,44.40
2022-11-23T09:39:04.448Z,38.80
2022-11-23T09:42:34.815Z,44.80
2022-11-23T09:45:47.587Z,42.00
2022-11-23T09:49:10.857Z,38.40
2022-11-23T09:52:19.159Z,43.60
2022-11-23T09:55:35.202Z,42.20
2022-11-23T09:58:41.688Z,41.80
2022-11-23T10:01:45.228Z,33.60
2022-11-23T10:04:49.149Z,38.00
2022-11-23T10:08:05.796Z,42.25
2022-11-23T10:11:30.936Z,39.00
2022-11-23T10:14:48.457Z,35.00
2022-11-23T10:18:21.208Z,41.60
2022-11-23T10:21:36.146Z,36.00
2022-11-23T10:24:45.439Z,37.00
2022-11-23T10:27:52.199Z,37.40
2022-11-23T10:31:03.199Z,45.20
2022-11-23T10:34:12.970Z,44.60
2022-11-23T10:37:18.524Z,43.20
2022-11-23T10:40:26.845Z,40.25
2022-11-23T10:43:36.339Z,39.00
2022-11-23T10:46:41.974Z,38.50
2022-11-23T10:49:58.528Z,43.75
2022-11-23T10:53:13.561Z,45.00
2022-11-23T10:56:16.886Z,44.60
2022-11-23T10:59:34.866Z,45.00
2022-11-23T11:02:42.803Z,36.50
2022-11-23T11:06:09.023Z,41.40
2022-11-23T11:09:22.536Z,42.00
2022-11-23T11:12:28.681Z,38.80
2022-11-23T11:15:32.986Z,45.00
2022-11-23T11:18:43.257Z,40.00
2022-11-23T11:21:47.791Z,40.00
2022-11-23T11:24:52.256Z,47.40
2022-11-23T11:27:55.839Z,44.75
2022-11-23T11:31:14.595Z,43.50
2022-11-23T11:34:25.055Z,44.20
2022-11-23T11:37:34.104Z,40.00
2022-11-23T11:40:42.908Z,45.60
2022-11-23T11:43:49.868Z,42.60
2022-11-23T11:46:59.082Z,43.40
2022-11-23T11:50:18.615Z,40.60
2022-11-23T11:53:27.965Z,37.00
2022-11-23T11:56:38.319Z,39.80
2022-11-23T11:59:45.250Z,45.00
2022-11-23T12:02:59.578Z,41.60
2022-11-23T12:06:10.001Z,37.00
2022-11-23T12:09:17.866Z,44.40
2022-11-23T12:12:29.440Z,35.00
2022-11-23T12:15:49.410Z,44.60
2022-11-23T12:19:03.654Z,42.33
2022-11-23T12:22:26.639Z,36.00
2022-11-23T12:25:36.889Z,40.75
2022-11-23T12:29:15.219Z,43.00
2022-11-23T12:32:30.934Z,43.00
2022-11-23T12:35:56.937Z,39.50
2022-11-23T12:39:11.205Z,42.60
2022-11-23T12:42:25.156Z,35.50
2022-11-23T12:45:45.130Z,37.00
2022-11-23T12:49:04.474Z,43.00
2022-11-23T12:52:28.051Z,42.40
2022-11-23T12:55:45.050Z,39.00
2022-11-23T12:58:51.347Z,40.50
2022-11-23T13:02:00.672Z,37.75
2022-11-23T13:05:30.354Z,41.60
2022-11-23T13:09:06.539Z,41.00
2022-11-23T13:12:28.485Z,42.67
2022-11-23T13:15:49.888Z,42.60
2022-11-23T13:19:07.346Z,44.20
2022-11-23T13:22:18.184Z,40.00
2022-11-23T13:25:28.786Z,41.00
2022-11-23T13:28:33.365Z,35.40
2022-11-23T13:31:36.837Z,40.40
2022-11-23T13:34:48.434Z,40.00
2022-11-23T13:38:39.306Z,38.00
2022-11-23T13:42:00.716Z,42.33
2022-11-23T13:45:27.569Z,42.75
2022-11-23T13:52:07.505Z,45.40
2022-11-23T13:55:23.213Z,39.00
2022-11-23T13:58:51.102Z,41.20
2022-11-23T14:02:04.875Z,43.40
2022-11-23T14:05:54.626Z,45.40
2022-11-23T14:09:06.832Z,39.40
2022-11-23T14:12:20.229Z,45.00
2022-11-23T14:15:25.098Z,41.00
2022-11-23T14:18:47.991Z,39.60
2022-11-23T14:22:03.711Z,40.33
2022-11-23T14:25:37.120Z,47.00
2022-11-23T14:28:53.823Z,43.40
2022-11-23T14:32:16.369Z,40.60
2022-11-23T14:35:33.208Z,42.40
2022-11-23T14:38:58.251Z,42.00
2022-11-23T14:42:04.775Z,44.80
2022-11-23T14:45:14.990Z,43.40
2022-11-23T14:48:28.907Z,40.60
2022-11-23T14:51:36.224Z,44.20
2022-11-23T14:54:40.504Z,42.40
2022-11-23T14:57:47.433Z,47.50
2022-11-23T15:00:51.597Z,49.25
2022-11-23T15:03:59.112Z,41.60
2022-11-23T15:07:11.244Z,42.00
2022-11-23T15:10:28.864Z,47.20
2022-11-23T15:13:42.786Z,45.00
2022-11-23T15:16:46.056Z,45.20
2022-11-23T15:19:57.249Z,46.20
2022-11-23T15:23:03.465Z,44.20
2022-11-23T15:26:28.590Z,39.75
2022-11-23T15:29:39.962Z,45.80
2022-11-23T15:32:43.808Z,49.75
2022-11-23T15:35:48.431Z,46.60
2022-11-23T15:38:53.825Z,44.20
2022-11-23T15:41:57.859Z,42.00
2022-11-23T15:45:01.355Z,45.00
2022-11-23T15:48:07.805Z,43.00
2022-11-23T15:51:26.213Z,43.75
2022-11-23T15:54:35.929Z,42.80
2022-11-23T15:57:41.300Z,44.60
2022-11-23T16:00:51.177Z,45.00
2022-11-23T16:04:01.168Z,44.75
2022-11-23T16:07:17.504Z,34.80
2022-11-23T16:10:24.637Z,47.00
2022-11-23T16:13:38.937Z,46.60
2022-11-23T16:16:46.065Z,43.75
2022-11-23T16:19:51.442Z,45.20
2022-11-23T16:22:57.143Z,42.00
2022-11-23T16:26:04.133Z,42.40
2022-11-23T16:29:07.455Z,43.00
2022-11-23T16:32:24.336Z,45.40
2022-11-23T16:35:27.891Z,47.25
2022-11-23T16:38:31.800Z,41.25
2022-11-23T16:41:36.700Z,45.00
2022-11-23T16:44:41.957Z,46.00
2022-11-23T16:47:54.044Z,42.60
2022-11-23T16:50:59.046Z,44.00
2022-11-23T16:54:24.410Z,43.40
2022-11-23T16:57:31.200Z,43.80
2022-11-23T17:00:34.530Z,45.00
2022-11-23T17:03:41.374Z,38.33
2022-11-23T17:06:44.722Z,48.60
2022-11-23T17:09:48.074Z,42.20
2022-11-23T17:12:55.182Z,45.00
2022-11-23T17:15:58.448Z,40.25
2022-11-23T17:19:01.723Z,43.60
2022-11-23T17:22:05.341Z,43.00
2022-11-23T17:25:14.409Z,44.00
2022-11-23T17:28:22.598Z,41.40
2022-11-23T17:31:25.960Z,48.00
2022-11-23T17:34:29.239Z,46.75
2022-11-23T17:37:32.605Z,49.20
2022-11-23T17:40:35.905Z,46.60
2022-11-23T17:43:40.538Z,38.60
2022-11-23T17:46:44.447Z,45.00
2022-11-23T17:49:47.786Z,48.20
2022-11-23T17:52:51.239Z,49.00
2022-11-23T17:55:54.720Z,45.00
2022-11-23T17:58:59.307Z,46.80
2022-11-23T18:02:03.182Z,47.00
2022-11-23T18:05:07.366Z,46.75
2022-11-23T18:08:11.964Z,44.60
2022-11-23T18:11:15.675Z,47.00
2022-11-23T18:14:21.893Z,42.40
2022-11-23T18:17:25.203Z,42.00
2022-11-23T18:20:28.353Z,48.25
2022-11-23T18:23:31.883Z,44.20
2022-11-23T18:26:35.045Z,43.50
2022-11-23T18:29:40.399Z,43.00
2022-11-23T18:32:43.561Z,45.00
2022-11-23T18:35:46.881Z,42.80
2022-11-23T18:38:50.209Z,44.40
2022-11-23T18:41:53.492Z,44.50
2022-11-23T18:44:58.118Z,48.20
2022-11-23T18:48:01.307Z,45.00
2022-11-23T18:51:04.578Z,42.00
2022-11-23T18:54:08.280Z,48.00
2022-11-23T18:57:12.933Z,43.60
2022-11-23T19:00:19.552Z,45.00
2022-11-23T19:03:23.247Z,45.00
2022-11-23T19:06:26.603Z,44.50
2022-11-23T19:09:29.899Z,43.00
2022-11-23T19:12:33.590Z,41.75
2022-11-23T19:15:38.379Z,42.60
2022-11-23T19:18:41.815Z,41.20
2022-11-23T19:21:45.287Z,45.00
2022-11-23T19:24:48.638Z,44.50
2022-11-23T19:27:52.848Z,45.00
2022-11-23T19:30:57.720Z,41.60
2022-11-23T19:34:02.595Z,38.40
2022-11-23T19:37:05.859Z,40.20
2022-11-23T19:40:11.079Z,46.00
2022-11-23T19:43:14.380Z,41.00
2022-11-23T19:46:19.397Z,43.40
2022-11-23T19:49:22.758Z,44.00
2022-11-23T19:52:41.647Z,44.60
2022-11-23T19:55:49.484Z,47.00
2022-11-23T19:58:54.599Z,47.80
2022-11-23T20:01:59.594Z,49.40
2022-11-23T20:05:03.301Z,48.00
2022-11-23T20:08:06.931Z,43.00
2022-11-23T20:11:12.564Z,48.00
2022-11-23T20:14:16.668Z,47.25
2022-11-23T20:17:21.326Z,43.80
2022-11-23T20:20:24.603Z,49.00
2022-11-23T20:23:27.992Z,41.40
2022-11-23T20:26:31.925Z,47.40
2022-11-23T20:29:35.451Z,47.80
2022-11-23T20:32:40.237Z,38.80
2022-11-23T20:35:43.548Z,46.75
2022-11-23T20:38:47.468Z,41.00
2022-11-23T20:41:50.701Z,47.60
2022-11-23T20:44:53.890Z,45.00
2022-11-23T20:47:58.889Z,41.50
2022-11-23T20:51:06.196Z,37.00
2022-11-23T20:54:12.561Z,44.40
2022-11-23T20:57:15.864Z,45.60
2022-11-23T21:00:20.768Z,45.00
2022-11-23T21:03:25.773Z,43.00
2022-11-23T21:06:34.451Z,41.00
2022-11-23T21:09:40.688Z,44.00
2022-11-23T21:13:01.407Z,45.25
2022-11-23T21:16:07.104Z,47.20
2022-11-23T21:19:12.091Z,45.80
2022-11-23T21:22:16.613Z,49.00
2022-11-23T21:25:20.427Z,52.00
2022-11-23T21:28:24.842Z,45.00
2022-11-23T21:31:30.309Z,44.40
2022-11-23T21:34:37.858Z,47.80
2022-11-23T21:37:41.755Z,48.40
2022-11-23T21:40:46.572Z,42.00
2022-11-23T21:43:52.725Z,47.00
2022-11-23T21:46:56.352Z,43.20
2022-11-23T21:50:00.990Z,42.20
2022-11-23T21:53:04.313Z,41.00
2022-11-23T21:56:10.757Z,42.80
2022-11-23T21:59:14.829Z,42.00
2022-11-23T22:06:00.365Z,43.00
2022-11-23T22:09:07.041Z,41.75
2022-11-23T22:12:11.263Z,40.00
2022-11-23T22:15:15.609Z,45.00
2022-11-23T22:18:19.210Z,44.40
2022-11-23T22:21:26.094Z,41.60
2022-11-23T22:24:29.574Z,43.00
2022-11-23T22:27:33.116Z,43.00
2022-11-23T22:30:36.478Z,48.75
2022-11-23T22:33:40.962Z,41.80
2022-11-23T22:36:45.825Z,48.40
2022-11-23T22:39:49.677Z,49.00
2022-11-23T22:42:54.316Z,43.80
2022-11-23T22:46:05.602Z,42.00
2022-11-23T22:49:09.751Z,48.80
2022-11-23T22:52:14.664Z,46.25
2022-11-23T22:55:18.085Z,46.00
2022-11-23T22:58:22.162Z,45.60
2022-11-23T23:01:27.600Z,45.00
2022-11-23T23:04:31.319Z,51.50
2022-11-23T23:07:36.507Z,42.60
2022-11-23T23:10:39.973Z,48.00
2022-11-23T23:13:44.057Z,49.25
2022-11-23T23:16:47.806Z,50.00
2022-11-23T23:19:51.613Z,53.80
2022-11-23T23:22:56.790Z,51.60
2022-11-23T23:26:00.099Z,50.00
2022-11-23T23:29:03.615Z,52.00
2022-11-23T23:32:07.411Z,50.50
2022-11-23T23:35:11.024Z,53.00
2022-11-23T23:38:18.710Z,55.60
2022-11-23T23:41:22.530Z,50.60
2022-11-23T23:44:26.174Z,47.40
2022-11-23T23:47:29.649Z,55.50
2022-11-23T23:50:35.161Z,50.80
2022-11-23T23:53:40.672Z,49.00
2022-11-23T23:56:44.031Z,51.60
2022-11-23T23:59:47.442Z,49.60
